createdAt,value
2018-05-18T00:02:27.604Z,70.15
2018-05-18T00:04:55.166Z,71.21
2018-05-18T00:07:22.679Z,70.66
2018-05-18T00:09:50.283Z,70.83
2018-05-18T00:12:17.808Z,70.81
2018-05-18T00:14:45.342Z,71.04
2018-05-18T00:17:12.864Z,71.67
2018-05-18T00:19:40.417Z,71.40
2018-05-18T00:22:07.987Z,71.42
2018-05-18T00:24:35.512Z,71.94
2018-05-18T00:27:03.104Z,71.52
2018-05-18T00:29:30.615Z,71.61
2018-05-18T00:31:58.190Z,72.52
2018-05-18T00:34:25.719Z,70.59
2018-05-18T00:36:53.252Z,71.19
2018-05-18T00:39:20.774Z,72.58
2018-05-18T00:41:48.361Z,72.53
2018-05-18T00:44:15.877Z,72.71
2018-05-18T00:46:43.412Z,73.12
2018-05-18T00:49:11.034Z,72.95
2018-05-18T00:51:38.558Z,72.52
2018-05-18T00:54:06.159Z,72.52
2018-05-18T00:56:33.717Z,72.01
2018-05-18T00:59:01.247Z,73.36
2018-05-18T01:01:28.835Z,72.09
2018-05-18T01:03:56.452Z,72.58
2018-05-18T01:06:24.010Z,72.51
2018-05-18T01:08:51.563Z,73.22
2018-05-18T01:11:19.085Z,72.43
2018-05-18T01:13:46.638Z,72.11
2018-05-18T01:16:14.168Z,71.62
2018-05-18T01:18:41.696Z,71.00
2018-05-18T01:21:09.322Z,71.20
2018-05-18T01:23:36.840Z,72.10
2018-05-18T01:26:04.432Z,72.74
2018-05-18T01:28:31.995Z,72.30
2018-05-18T01:30:59.525Z,71.53
2018-05-18T01:33:27.060Z,71.34
2018-05-18T01:35:54.593Z,72.32
2018-05-18T01:38:22.111Z,72.56
2018-05-18T01:40:49.693Z,73.79
2018-05-18T01:43:17.215Z,72.91
2018-05-18T01:45:44.740Z,71.92
2018-05-18T01:48:12.372Z,71.57
2018-05-18T01:50:39.904Z,72.88
2018-05-18T01:53:07.513Z,73.26
2018-05-18T01:55:35.060Z,71.90
2018-05-18T01:58:02.586Z,73.06
2018-05-18T02:00:30.112Z,72.80
2018-05-18T02:02:57.634Z,72.12
2018-05-18T02:05:25.171Z,71.61
2018-05-18T02:07:52.836Z,72.93
2018-05-18T02:10:20.313Z,72.67
2018-05-18T02:12:47.846Z,72.99
2018-05-18T02:15:15.374Z,73.19
2018-05-18T02:17:42.910Z,73.21
2018-05-18T02:20:10.554Z,73.91
2018-05-18T02:22:38.081Z,73.40
2018-05-18T02:25:05.612Z,72.78
2018-05-18T02:27:33.246Z,73.63
2018-05-18T02:30:00.766Z,73.43
2018-05-18T02:32:28.352Z,73.75
2018-05-18T02:34:55.882Z,72.48
2018-05-18T02:37:23.431Z,73.72
2018-05-18T02:39:50.959Z,74.42
2018-05-18T02:42:18.490Z,72.85
2018-05-18T02:44:46.022Z,72.32
2018-05-18T02:47:13.544Z,73.44
2018-05-18T02:49:41.075Z,74.88
2018-05-18T02:52:08.596Z,74.85
2018-05-18T02:54:36.116Z,72.86
2018-05-18T02:57:03.647Z,74.34
2018-05-18T02:59:31.175Z,74.13
2018-05-18T03:01:58.752Z,74.44
2018-05-18T03:04:26.325Z,74.55
2018-05-18T03:06:53.885Z,75.27
2018-05-18T03:09:21.451Z,75.60
2018-05-18T03:11:48.979Z,76.02
2018-05-18T03:14:16.600Z,74.11
2018-05-18T03:16:44.113Z,76.39
2018-05-18T03:19:11.863Z,74.71
2018-05-18T03:21:39.380Z,74.06
2018-05-18T03:24:06.914Z,74.94
2018-05-18T03:26:34.441Z,74.26
2018-05-18T03:29:01.956Z,75.86
2018-05-18T03:31:29.472Z,74.28
2018-05-18T03:33:56.994Z,74.51
2018-05-18T03:36:24.608Z,73.89
2018-05-18T03:38:52.168Z,75.38
2018-05-18T03:41:19.684Z,75.11
2018-05-18T03:43:47.208Z,75.76
2018-05-18T03:46:14.731Z,75.56
2018-05-18T03:48:42.256Z,75.19
2018-05-18T03:51:09.837Z,75.42
2018-05-18T03:53:37.356Z,75.71
2018-05-18T03:56:04.887Z,74.70
2018-05-18T03:58:32.412Z,74.50
2018-05-18T04:00:59.936Z,75.33
2018-05-18T04:03:39.515Z,75.63
2018-05-18T04:06:18.877Z,75.66
2018-05-18T04:08:53.198Z,76.13
2018-05-18T04:11:20.723Z,75.32
2018-05-18T04:13:48.253Z,76.65
2018-05-18T04:16:15.781Z,75.56
2018-05-18T04:18:43.308Z,75.88
2018-05-18T04:21:10.900Z,75.34
2018-05-18T04:23:38.460Z,74.48
2018-05-18T04:26:05.985Z,75.25
2018-05-18T04:28:33.513Z,76.06
2018-05-18T04:31:01.137Z,75.68
2018-05-18T04:33:28.651Z,75.63
2018-05-18T04:35:56.201Z,74.89
2018-05-18T04:38:23.731Z,75.59
2018-05-18T04:40:51.259Z,75.34
2018-05-18T04:43:18.871Z,75.10
2018-05-18T04:45:46.500Z,76.15
2018-05-18T04:48:14.065Z,75.57
2018-05-18T04:50:41.584Z,75.19
2018-05-18T04:53:09.109Z,74.69
2018-05-18T04:55:36.744Z,74.78
2018-05-18T04:58:04.282Z,74.62
2018-05-18T05:00:31.812Z,74.11
2018-05-18T05:02:59.359Z,74.45
2018-05-18T05:05:26.962Z,74.44
2018-05-18T05:07:54.469Z,74.35
2018-05-18T05:10:21.996Z,74.24
2018-05-18T05:12:49.513Z,74.05
2018-05-18T05:15:17.099Z,73.59
2018-05-18T05:17:44.645Z,73.30
2018-05-18T05:20:12.161Z,73.12
2018-05-18T05:22:39.721Z,73.33
2018-05-18T05:25:07.254Z,73.01
2018-05-18T05:27:34.780Z,72.81
2018-05-18T05:30:02.313Z,72.73
2018-05-18T05:32:29.940Z,72.65
2018-05-18T05:34:57.496Z,72.49
2018-05-18T05:37:25.012Z,72.29
2018-05-18T05:39:52.620Z,72.24
2018-05-18T05:42:20.380Z,72.09
2018-05-18T05:44:47.904Z,71.89
2018-05-18T05:47:15.436Z,71.97
2018-05-18T05:49:43.059Z,72.08
2018-05-18T05:52:10.584Z,71.79
2018-05-18T05:54:38.112Z,71.55
2018-05-18T05:57:05.643Z,71.56
2018-05-18T05:59:33.165Z,71.71
2018-05-18T06:02:00.684Z,71.87
2018-05-18T06:04:28.216Z,71.59
2018-05-18T06:06:55.741Z,71.51
2018-05-18T06:09:23.344Z,71.17
2018-05-18T06:11:50.893Z,71.20
2018-05-18T06:14:18.420Z,71.16
2018-05-18T06:16:45.981Z,71.09
2018-05-18T06:19:13.577Z,71.12
2018-05-18T06:21:41.132Z,70.84
2018-05-18T06:24:08.902Z,70.72
2018-05-18T06:26:36.426Z,71.14
2018-05-18T06:29:03.990Z,70.97
2018-05-18T06:31:31.507Z,70.99
2018-05-18T06:33:59.140Z,70.92
2018-05-18T06:36:26.737Z,70.86
2018-05-18T06:38:54.284Z,70.83
2018-05-18T06:41:21.893Z,70.47
2018-05-18T06:43:49.384Z,70.21
2018-05-18T06:46:16.938Z,69.89
2018-05-18T06:48:44.463Z,70.25
2018-05-18T06:51:12.061Z,70.17
2018-05-18T06:53:39.606Z,70.10
2018-05-18T06:56:07.180Z,69.55
2018-05-18T06:58:34.718Z,69.56
2018-05-18T07:01:02.271Z,69.65
2018-05-18T07:03:29.797Z,69.21
2018-05-18T07:05:57.352Z,69.22
2018-05-18T07:08:24.876Z,69.01
2018-05-18T07:10:52.453Z,68.85
2018-05-18T07:13:19.976Z,68.63
2018-05-18T07:15:47.511Z,68.81
2018-05-18T07:18:15.048Z,68.78
2018-05-18T07:20:42.676Z,69.31
2018-05-18T07:23:10.204Z,68.89
2018-05-18T07:25:37.745Z,68.32
2018-05-18T07:28:05.286Z,67.92
2018-05-18T07:30:32.916Z,67.56
2018-05-18T07:33:00.449Z,67.32
2018-05-18T07:35:27.992Z,67.15
2018-05-18T07:37:55.565Z,67.48
2018-05-18T07:40:23.149Z,66.98
2018-05-18T07:42:50.673Z,67.22
2018-05-18T07:45:18.214Z,67.17
2018-05-18T07:47:45.853Z,66.81
2018-05-18T07:50:13.361Z,66.11
2018-05-18T07:52:40.933Z,66.83
2018-05-18T07:55:08.472Z,65.48
2018-05-18T07:57:36.080Z,64.92
2018-05-18T08:00:03.643Z,65.05
2018-05-18T08:02:31.173Z,66.28
2018-05-18T08:04:58.699Z,64.70
2018-05-18T08:07:26.333Z,63.49
2018-05-18T08:09:53.863Z,63.94
2018-05-18T08:12:21.395Z,65.02
2018-05-18T08:14:49.006Z,60.97
2018-05-18T08:17:16.527Z,62.31
2018-05-18T08:19:44.122Z,60.53
2018-05-18T08:22:11.640Z,59.56
2018-05-18T08:24:39.179Z,61.19
2018-05-18T08:27:18.610Z,60.38
2018-05-18T08:29:46.134Z,58.12
2018-05-18T08:32:13.664Z,60.77
2018-05-18T08:34:41.187Z,58.87
2018-05-18T08:37:08.818Z,60.12
2018-05-18T08:39:36.344Z,58.25
2018-05-18T08:42:03.866Z,59.41
2018-05-18T08:44:31.448Z,58.89
2018-05-18T08:46:59.040Z,59.53
2018-05-18T08:49:26.642Z,58.85
2018-05-18T08:51:54.279Z,58.95
2018-05-18T08:54:21.843Z,59.33
2018-05-18T08:56:49.402Z,58.69
2018-05-18T08:59:16.928Z,58.97
2018-05-18T09:01:44.456Z,58.40
2018-05-18T09:04:12.016Z,58.13
2018-05-18T09:06:39.576Z,60.11
2018-05-18T09:09:07.197Z,59.85
2018-05-18T09:11:34.755Z,59.97
2018-05-18T09:14:02.285Z,59.42
2018-05-18T09:16:29.819Z,59.81
2018-05-18T09:18:57.439Z,60.52
2018-05-18T09:21:25.105Z,60.13
2018-05-18T09:23:52.667Z,60.81
2018-05-18T09:26:20.225Z,60.92
2018-05-18T09:28:47.778Z,60.54
2018-05-18T09:31:15.311Z,60.75
2018-05-18T09:33:42.844Z,60.78
2018-05-18T09:36:10.366Z,60.77
2018-05-18T09:38:37.897Z,61.26
2018-05-18T09:41:05.440Z,61.44
2018-05-18T09:43:33.009Z,61.31
2018-05-18T09:46:00.552Z,61.49
2018-05-18T09:48:28.249Z,61.21
2018-05-18T09:50:55.823Z,61.34
2018-05-18T09:53:23.382Z,61.40
2018-05-18T09:55:50.919Z,61.44
2018-05-18T09:58:18.448Z,61.51
2018-05-18T10:00:46.052Z,61.58
2018-05-18T10:03:13.559Z,61.08
2018-05-18T10:05:41.199Z,60.89
2018-05-18T10:08:08.744Z,61.29
2018-05-18T10:10:36.304Z,61.03
2018-05-18T10:13:03.831Z,61.27
2018-05-18T10:15:31.384Z,61.25
2018-05-18T10:17:58.921Z,61.37
2018-05-18T10:20:26.544Z,61.10
2018-05-18T10:22:54.076Z,61.59
2018-05-18T10:25:26.442Z,61.02
2018-05-18T10:27:53.972Z,60.96
2018-05-18T10:30:31.219Z,60.82
2018-05-18T10:32:58.740Z,60.81
2018-05-18T10:35:26.314Z,61.10
2018-05-18T10:37:53.835Z,61.27
2018-05-18T10:40:21.393Z,60.72
2018-05-18T10:42:49.534Z,61.08
2018-05-18T10:45:17.143Z,61.19
2018-05-18T10:47:44.649Z,60.91
2018-05-18T10:50:12.208Z,60.52
2018-05-18T10:52:39.773Z,60.31
2018-05-18T10:55:07.300Z,60.28
2018-05-18T10:57:34.862Z,59.84
2018-05-18T11:00:02.455Z,59.99
2018-05-18T11:02:29.971Z,60.03
2018-05-18T11:04:57.601Z,60.37
2018-05-18T11:07:25.121Z,60.36
2018-05-18T11:09:52.663Z,60.20
2018-05-18T11:12:20.249Z,59.88
2018-05-18T11:14:47.769Z,60.07
2018-05-18T11:17:15.377Z,59.84
2018-05-18T11:19:42.929Z,60.32
2018-05-18T11:22:10.489Z,59.85
2018-05-18T11:24:38.061Z,59.97
2018-05-18T11:27:05.618Z,59.93
2018-05-18T11:29:33.140Z,59.50
2018-05-18T11:32:00.759Z,59.83
2018-05-18T11:34:28.386Z,60.18
2018-05-18T11:36:55.943Z,60.52
2018-05-18T11:39:23.472Z,60.18
2018-05-18T11:41:51.028Z,59.66
2018-05-18T11:44:18.648Z,60.29
2018-05-18T11:46:46.176Z,59.93
2018-05-18T11:49:13.696Z,59.74
2018-05-18T11:51:41.323Z,59.53
2018-05-18T11:54:08.869Z,59.77
2018-05-18T11:56:36.391Z,59.45
2018-05-18T11:59:04.003Z,60.03
2018-05-18T12:01:31.531Z,59.92
2018-05-18T12:03:59.048Z,60.03
2018-05-18T12:06:26.571Z,60.02
2018-05-18T12:08:54.092Z,60.34
2018-05-18T12:11:21.693Z,60.10
2018-05-18T12:13:49.221Z,60.07
2018-05-18T12:16:16.753Z,60.05
2018-05-18T12:18:44.379Z,60.03
2018-05-18T12:21:11.901Z,59.64
2018-05-18T12:23:39.425Z,60.07
2018-05-18T12:26:07.082Z,59.83
2018-05-18T12:28:35.029Z,59.63
2018-05-18T12:31:02.556Z,59.56
2018-05-18T12:33:30.081Z,59.69
2018-05-18T12:35:57.630Z,59.56
2018-05-18T12:38:25.209Z,59.57
2018-05-18T12:40:52.812Z,59.70
2018-05-18T12:43:20.328Z,60.11
2018-05-18T12:45:47.856Z,59.86
2018-05-18T12:48:15.377Z,60.04
2018-05-18T12:50:42.896Z,60.65
2018-05-18T12:53:10.428Z,60.96
2018-05-18T12:55:38.085Z,60.61
2018-05-18T12:58:05.645Z,60.40
2018-05-18T13:00:33.179Z,60.34
2018-05-18T13:03:00.776Z,60.47
2018-05-18T13:05:28.429Z,60.57
2018-05-18T13:07:55.990Z,59.92
2018-05-18T13:10:23.549Z,61.30
2018-05-18T13:12:51.079Z,60.99
2018-05-18T13:15:18.597Z,61.06
2018-05-18T13:17:46.228Z,61.34
2018-05-18T13:20:13.751Z,61.24
2018-05-18T13:22:41.291Z,61.85
2018-05-18T13:25:08.840Z,62.59
2018-05-18T13:27:36.361Z,61.68
2018-05-18T13:30:03.892Z,61.80
2018-05-18T13:32:31.416Z,61.47
2018-05-18T13:34:58.953Z,61.27
2018-05-18T13:37:26.602Z,61.50
2018-05-18T13:39:54.161Z,61.38
2018-05-18T13:42:21.720Z,61.13
2018-05-18T13:44:49.264Z,61.35
2018-05-18T13:47:16.844Z,61.22
2018-05-18T13:49:44.400Z,61.43
2018-05-18T13:52:11.965Z,61.21
2018-05-18T13:54:39.495Z,61.01
2018-05-18T13:57:07.075Z,61.54
2018-05-18T13:59:34.581Z,61.31
2018-05-18T14:02:02.106Z,61.62
2018-05-18T14:04:29.648Z,61.19
2018-05-18T14:06:57.171Z,61.22
2018-05-18T14:09:24.779Z,61.31
2018-05-18T14:11:52.349Z,61.16
2018-05-18T14:14:19.876Z,61.17
2018-05-18T14:16:47.396Z,61.34
2018-05-18T14:19:14.923Z,61.58
2018-05-18T14:21:42.482Z,61.68
2018-05-18T14:24:10.018Z,61.94
2018-05-18T14:26:37.601Z,61.60
2018-05-18T14:29:05.128Z,61.61
2018-05-18T14:31:32.747Z,61.74
2018-05-18T14:34:00.490Z,61.54
2018-05-18T14:36:28.011Z,61.66
2018-05-18T14:38:55.537Z,61.83
2018-05-18T14:41:23.273Z,62.13
2018-05-18T14:43:50.939Z,62.04
2018-05-18T14:46:18.464Z,62.10
2018-05-18T14:48:46.047Z,61.82
2018-05-18T14:51:13.620Z,62.02
2018-05-18T14:53:41.132Z,61.98
2018-05-18T14:56:08.696Z,62.25
2018-05-18T14:58:36.412Z,62.23
2018-05-18T15:01:04.002Z,63.12
2018-05-18T15:03:31.542Z,62.56
2018-05-18T15:05:59.070Z,62.69
2018-05-18T15:08:26.634Z,62.32
2018-05-18T15:10:54.174Z,62.51
2018-05-18T15:13:21.722Z,63.08
2018-05-18T15:15:49.312Z,62.83
2018-05-18T15:18:16.874Z,63.29
2018-05-18T15:20:44.438Z,62.90
2018-05-18T15:23:11.987Z,63.18
2018-05-18T15:25:39.525Z,64.50
2018-05-18T15:28:07.109Z,63.74
2018-05-18T15:30:34.676Z,64.38
2018-05-18T15:33:02.199Z,64.74
2018-05-18T15:35:29.718Z,64.11
2018-05-18T15:37:57.251Z,64.86
2018-05-18T15:40:24.777Z,64.68
2018-05-18T15:42:52.304Z,65.28
2018-05-18T15:45:19.830Z,64.68
2018-05-18T15:47:47.353Z,64.86
2018-05-18T15:50:14.945Z,65.83
2018-05-18T15:52:42.513Z,65.26
2018-05-18T15:55:10.037Z,64.98
2018-05-18T15:57:37.565Z,65.80
2018-05-18T16:00:05.093Z,65.71
2018-05-18T16:02:32.653Z,66.88
2018-05-18T16:05:00.182Z,66.50
2018-05-18T16:07:27.767Z,66.62
2018-05-18T16:09:55.329Z,66.64
2018-05-18T16:12:22.858Z,66.40
2018-05-18T16:14:50.382Z,66.23
2018-05-18T16:17:17.936Z,67.00
2018-05-18T16:19:45.462Z,67.06
2018-05-18T16:22:12.994Z,68.31
2018-05-18T16:24:40.578Z,68.20
2018-05-18T16:27:08.117Z,68.08
2018-05-18T16:29:35.643Z,67.37
2018-05-18T16:32:03.193Z,67.25
2018-05-18T16:34:30.726Z,67.17
2018-05-18T16:36:58.260Z,67.33
2018-05-18T16:39:25.796Z,68.56
2018-05-18T16:41:53.368Z,67.76
2018-05-18T16:44:20.963Z,68.64
2018-05-18T16:46:48.493Z,68.14
2018-05-18T16:49:16.015Z,68.01
2018-05-18T16:51:43.547Z,67.47
2018-05-18T16:54:11.077Z,68.74
2018-05-18T16:56:38.607Z,68.42
2018-05-18T16:59:06.216Z,68.53
2018-05-18T17:01:33.781Z,68.35
2018-05-18T17:04:01.338Z,68.11
2018-05-18T17:06:28.878Z,69.60
2018-05-18T17:08:56.417Z,68.19
2018-05-18T17:11:24.020Z,69.26
2018-05-18T17:13:51.581Z,69.47
2018-05-18T17:16:19.110Z,69.84
2018-05-18T17:18:46.706Z,68.36
2018-05-18T17:21:14.228Z,68.53
2018-05-18T17:23:41.757Z,68.47
2018-05-18T17:26:09.313Z,68.56
2018-05-18T17:28:36.840Z,69.04
2018-05-18T17:31:04.365Z,68.44
2018-05-18T17:33:31.900Z,68.50
2018-05-18T17:35:59.445Z,68.44
2018-05-18T17:38:26.977Z,69.42
2018-05-18T17:40:54.545Z,69.72
2018-05-18T17:43:22.198Z,69.65
2018-05-18T17:45:49.761Z,70.08
2018-05-18T17:48:17.284Z,69.35
2018-05-18T17:50:44.808Z,68.66
2018-05-18T17:53:12.377Z,70.29
2018-05-18T17:55:39.998Z,68.73
2018-05-18T17:58:07.562Z,69.77
2018-05-18T18:00:35.126Z,69.39
2018-05-18T18:03:02.680Z,69.50
2018-05-18T18:05:30.241Z,69.53
2018-05-18T18:07:57.820Z,68.85
2018-05-18T18:10:25.387Z,69.50
2018-05-18T18:12:52.926Z,69.43
2018-05-18T18:15:21.084Z,69.71
2018-05-18T18:17:48.655Z,69.56
2018-05-18T18:20:16.216Z,70.98
2018-05-18T18:22:43.785Z,71.06
2018-05-18T18:25:11.330Z,69.74
2018-05-18T18:27:38.858Z,69.75
2018-05-18T18:30:06.380Z,70.42
2018-05-18T18:32:33.913Z,70.89
2018-05-18T18:35:01.441Z,70.61
2018-05-18T18:37:28.983Z,71.70
2018-05-18T18:39:56.533Z,70.35
2018-05-18T18:42:24.939Z,71.02
2018-05-18T18:44:52.476Z,72.06
2018-05-18T18:47:20.022Z,72.39
2018-05-18T18:49:47.576Z,71.00
2018-05-18T18:52:15.136Z,71.25
2018-05-18T18:54:42.669Z,72.22
2018-05-18T18:57:10.216Z,71.35
2018-05-18T18:59:37.749Z,73.02
2018-05-18T19:02:05.280Z,71.88
2018-05-18T19:04:32.850Z,72.27
2018-05-18T19:07:00.396Z,72.26
2018-05-18T19:09:27.912Z,72.16
2018-05-18T19:11:55.455Z,74.10
2018-05-18T19:14:23.046Z,72.44
2018-05-18T19:16:50.610Z,73.27
2018-05-18T19:19:18.162Z,74.04
2018-05-18T19:21:45.731Z,72.92
2018-05-18T19:24:13.844Z,74.46
2018-05-18T19:26:41.416Z,73.27
2018-05-18T19:29:09.140Z,73.16
2018-05-18T19:31:36.781Z,73.47
2018-05-18T19:34:04.322Z,72.55
2018-05-18T19:36:31.916Z,74.67
2018-05-18T19:38:59.435Z,72.98
2018-05-18T19:41:26.975Z,73.22
2018-05-18T19:43:54.615Z,74.17
2018-05-18T19:46:22.744Z,73.56
2018-05-18T19:48:50.260Z,74.43
2018-05-18T19:51:17.798Z,74.49
2018-05-18T19:53:45.339Z,73.88
2018-05-18T19:56:12.879Z,73.45
2018-05-18T19:58:40.424Z,73.62
2018-05-18T20:01:07.987Z,73.98
2018-05-18T20:03:36.138Z,74.24
2018-05-18T20:06:03.754Z,73.61
2018-05-18T20:08:31.297Z,75.79
2018-05-18T20:10:58.873Z,75.10
2018-05-18T20:13:26.407Z,75.97
2018-05-18T20:15:54.015Z,74.82
2018-05-18T20:18:21.539Z,74.96
2018-05-18T20:20:49.067Z,74.21
2018-05-18T20:23:16.597Z,74.11
2018-05-18T20:25:44.133Z,74.57
2018-05-18T20:28:11.659Z,75.07
2018-05-18T20:30:39.256Z,74.92
2018-05-18T20:33:06.913Z,75.83
2018-05-18T20:35:34.439Z,74.28
2018-05-18T20:38:02.491Z,76.34
2018-05-18T20:40:30.003Z,76.73
2018-05-18T20:42:57.562Z,76.46
2018-05-18T20:45:25.156Z,74.88
2018-05-18T20:47:52.786Z,76.37
2018-05-18T20:50:20.345Z,76.00
2018-05-18T20:52:47.902Z,76.28
2018-05-18T20:55:15.432Z,75.18
2018-05-18T20:57:42.947Z,77.12
2018-05-18T21:00:10.484Z,76.40
2018-05-18T21:02:38.009Z,75.36
2018-05-18T21:05:05.535Z,75.92
2018-05-18T21:07:33.532Z,77.35
2018-05-18T21:10:01.075Z,76.96
2018-05-18T21:12:28.625Z,77.89
2018-05-18T21:14:56.153Z,76.82
2018-05-18T21:17:23.699Z,76.43
2018-05-18T21:19:51.238Z,76.33
2018-05-18T21:22:18.799Z,77.79
2018-05-18T21:24:46.359Z,77.38
2018-05-18T21:27:13.885Z,77.27
2018-05-18T21:29:41.415Z,77.96
2018-05-18T21:32:08.968Z,77.82
2018-05-18T21:34:36.511Z,77.50
2018-05-18T21:37:04.057Z,77.04
2018-05-18T21:39:31.579Z,77.16
2018-05-18T22:59:31.872Z,75.97
2018-05-18T23:01:59.565Z,77.62
2018-05-18T23:04:27.096Z,77.73
2018-05-18T23:06:54.621Z,76.94
2018-05-18T23:09:22.143Z,77.61
2018-05-18T23:11:49.672Z,78.05
2018-05-18T23:14:17.204Z,77.69
2018-05-18T23:16:44.745Z,77.79
2018-05-18T23:19:12.281Z,77.71
2018-05-18T23:21:39.818Z,77.72
2018-05-18T23:24:07.348Z,78.27
2018-05-18T23:26:34.877Z,78.34
2018-05-18T23:29:02.410Z,77.51
2018-05-18T23:31:29.952Z,78.63
2018-05-18T23:33:57.991Z,78.74
2018-05-18T23:36:25.617Z,78.09
2018-05-18T23:38:53.156Z,78.33
2018-05-18T23:41:20.697Z,78.94
2018-05-18T23:43:48.277Z,78.45
2018-05-18T23:46:15.809Z,78.07
2018-05-18T23:48:43.340Z,79.50
2018-05-18T23:51:10.889Z,79.26
2018-05-18T23:53:38.417Z,78.57
2018-05-18T23:56:05.992Z,79.93
2018-05-18T23:58:33.553Z,78.47
